createdAt,value
2022-09-14T00:01:50.844Z,72.92
2022-09-14T00:04:18.776Z,72.90
2022-09-14T00:06:46.312Z,72.93
2022-09-14T00:09:22.289Z,72.53
2022-09-14T00:11:49.020Z,72.39
2022-09-14T00:14:15.828Z,73.08
2022-09-14T00:16:42.986Z,72.87
2022-09-14T00:19:19.759Z,73.05
2022-09-14T00:21:46.295Z,73.01
2022-09-14T00:24:12.661Z,72.88
2022-09-14T00:26:39.050Z,72.76
2022-09-14T00:29:05.529Z,72.75
2022-09-14T00:31:34.598Z,72.40
2022-09-14T00:34:01.379Z,72.66
2022-09-14T00:36:29.467Z,72.94
2022-09-14T00:38:57.031Z,73.26
2022-09-14T00:41:29.738Z,73.34
2022-09-14T00:44:19.151Z,73.58
2022-09-14T00:46:47.917Z,73.26
2022-09-14T00:49:18.286Z,73.32
2022-09-14T00:52:08.823Z,73.65
2022-09-14T00:54:47.183Z,73.68
2022-09-14T00:57:14.223Z,73.55
2022-09-14T00:59:42.002Z,73.25
2022-09-14T01:02:09.641Z,73.26
2022-09-14T01:04:36.629Z,74.03
2022-09-14T01:07:27.446Z,73.96
2022-09-14T01:10:27.920Z,73.44
2022-09-14T01:12:54.108Z,74.42
2022-09-14T01:15:23.727Z,73.78
2022-09-14T01:17:53.437Z,76.72
2022-09-14T01:20:58.665Z,76.37
2022-09-14T01:23:36.434Z,76.68
2022-09-14T01:26:54.171Z,76.51
2022-09-14T01:29:23.309Z,76.66
2022-09-14T01:31:56.815Z,78.21
2022-09-14T01:34:34.195Z,77.86
2022-09-14T01:37:18.468Z,78.88
2022-09-14T01:39:52.527Z,79.13
2022-09-14T01:42:21.028Z,78.92
2022-09-14T01:44:49.588Z,79.14
2022-09-14T01:47:23.303Z,79.57
2022-09-14T01:49:53.861Z,79.25
2022-09-14T01:52:27.296Z,78.75
2022-09-14T01:55:13.679Z,79.17
2022-09-14T01:57:44.030Z,78.80
2022-09-14T02:00:16.211Z,78.64
2022-09-14T02:02:55.568Z,78.92
2022-09-14T02:05:29.511Z,79.25
2022-09-14T02:07:56.160Z,79.70
2022-09-14T02:10:24.348Z,79.89
2022-09-14T02:12:51.950Z,79.22
2022-09-14T02:15:18.516Z,79.23
2022-09-14T02:17:45.351Z,79.47
2022-09-14T02:20:30.820Z,79.35
2022-09-14T02:22:57.177Z,79.41
2022-09-14T02:25:23.526Z,79.29
2022-09-14T02:27:49.926Z,79.22
2022-09-14T02:30:17.275Z,78.78
2022-09-14T02:32:59.738Z,79.51
2022-09-14T02:35:27.920Z,79.12
2022-09-14T02:38:15.966Z,79.59
2022-09-14T02:40:45.231Z,79.01
2022-09-14T02:43:35.365Z,79.42
2022-09-14T02:46:06.601Z,80.00
2022-09-14T02:48:38.836Z,80.04
2022-09-14T02:51:12.248Z,79.68
2022-09-14T02:53:44.528Z,80.14
2022-09-14T02:56:11.698Z,79.99
2022-09-14T02:58:40.368Z,80.11
2022-09-14T03:01:07.954Z,80.04
2022-09-14T03:03:35.735Z,80.21
2022-09-14T03:06:02.605Z,80.19
2022-09-14T03:08:29.004Z,80.43
2022-09-14T03:10:55.368Z,79.99
2022-09-14T03:13:21.764Z,80.04
2022-09-14T03:15:48.492Z,80.85
2022-09-14T03:18:15.162Z,81.06
2022-09-14T03:20:41.888Z,80.15
2022-09-14T03:23:09.093Z,80.14
2022-09-14T03:25:40.571Z,80.69
2022-09-14T03:28:08.194Z,79.75
2022-09-14T03:30:34.712Z,79.74
2022-09-14T03:33:01.465Z,80.72
2022-09-14T03:35:31.187Z,80.91
2022-09-14T03:37:57.965Z,80.61
2022-09-14T03:40:24.824Z,79.99
2022-09-14T03:42:51.996Z,80.37
2022-09-14T03:45:20.084Z,79.94
2022-09-14T03:47:49.373Z,79.23
2022-09-14T03:50:16.678Z,80.21
2022-09-14T03:52:43.050Z,80.38
2022-09-14T03:55:10.144Z,79.78
2022-09-14T03:57:37.423Z,78.94
2022-09-14T04:00:06.022Z,78.40
2022-09-14T04:02:32.428Z,79.14
2022-09-14T04:04:58.906Z,79.71
2022-09-14T04:07:25.352Z,79.87
2022-09-14T04:09:51.705Z,79.54
2022-09-14T04:12:18.069Z,79.17
2022-09-14T04:14:44.429Z,79.73
2022-09-14T04:17:10.784Z,80.51
2022-09-14T04:19:38.484Z,80.17
2022-09-14T04:22:05.300Z,80.55
2022-09-14T04:24:31.669Z,80.08
2022-09-14T04:26:58.148Z,80.02
2022-09-14T04:29:24.513Z,80.06
2022-09-14T04:31:50.925Z,80.11
2022-09-14T04:34:17.402Z,80.23
2022-09-14T04:36:43.761Z,79.65
2022-09-14T04:39:11.202Z,80.16
2022-09-14T04:41:37.669Z,80.87
2022-09-14T04:44:04.023Z,80.55
2022-09-14T04:46:32.306Z,80.13
2022-09-14T04:48:58.843Z,80.51
2022-09-14T04:51:27.927Z,79.84
2022-09-14T04:53:56.397Z,80.49
2022-09-14T04:56:23.976Z,80.83
2022-09-14T04:58:52.687Z,80.69
2022-09-14T05:01:21.756Z,80.04
2022-09-14T05:03:48.761Z,79.93
2022-09-14T05:06:20.160Z,79.55
2022-09-14T05:08:47.277Z,80.07
2022-09-14T05:11:16.541Z,79.59
2022-09-14T05:13:47.539Z,79.40
2022-09-14T05:16:24.760Z,79.64
2022-09-14T05:18:53.137Z,79.88
2022-09-14T05:21:20.828Z,80.23
2022-09-14T05:23:47.541Z,80.42
2022-09-14T05:26:14.592Z,79.83
2022-09-14T05:28:41.068Z,79.54
2022-09-14T05:31:10.096Z,79.08
2022-09-14T05:33:36.797Z,79.20
2022-09-14T05:36:05.833Z,79.03
2022-09-14T05:38:34.143Z,79.62
2022-09-14T05:41:00.508Z,79.67
2022-09-14T05:43:28.546Z,79.46
2022-09-14T05:45:54.976Z,79.53
2022-09-14T05:48:21.610Z,79.30
2022-09-14T05:50:48.399Z,78.99
2022-09-14T05:53:14.762Z,78.52
2022-09-14T05:55:41.112Z,78.56
2022-09-14T05:58:08.518Z,78.74
2022-09-14T06:00:35.060Z,78.52
2022-09-14T06:03:01.513Z,78.34
2022-09-14T06:05:28.216Z,78.66
2022-09-14T06:07:54.693Z,78.10
2022-09-14T06:10:21.564Z,78.55
2022-09-14T06:12:51.183Z,78.47
2022-09-14T06:15:19.852Z,78.19
2022-09-14T06:17:46.242Z,77.76
2022-09-14T06:20:12.583Z,77.59
2022-09-14T06:22:38.972Z,78.14
2022-09-14T06:25:05.724Z,77.50
2022-09-14T06:27:32.136Z,77.49
2022-09-14T06:29:58.568Z,77.34
2022-09-14T06:32:24.945Z,76.93
2022-09-14T06:34:51.293Z,76.93
2022-09-14T06:37:17.641Z,77.25
2022-09-14T06:39:44.074Z,76.90
2022-09-14T06:42:10.464Z,76.85
2022-09-14T06:44:36.812Z,76.33
2022-09-14T06:47:03.296Z,75.74
2022-09-14T06:49:29.768Z,74.45
2022-09-14T06:51:57.397Z,74.69
2022-09-14T06:54:25.192Z,75.72
2022-09-14T06:56:51.668Z,75.72
2022-09-14T06:59:18.391Z,75.41
2022-09-14T07:01:46.117Z,74.94
2022-09-14T07:04:14.285Z,75.71
2022-09-14T07:06:43.751Z,75.36
2022-09-14T07:09:10.339Z,74.56
2022-09-14T07:11:36.975Z,75.40
2022-09-14T07:14:03.434Z,74.37
2022-09-14T07:16:31.437Z,74.29
2022-09-14T07:18:59.903Z,74.81
2022-09-14T07:21:26.457Z,74.28
2022-09-14T07:23:53.012Z,73.66
2022-09-14T07:26:22.213Z,73.03
2022-09-14T07:28:55.450Z,72.93
2022-09-14T07:31:21.813Z,72.76
2022-09-14T07:33:48.949Z,72.63
2022-09-14T07:36:15.464Z,72.80
2022-09-14T07:38:52.071Z,72.83
2022-09-14T07:41:24.087Z,72.64
2022-09-14T07:43:51.743Z,72.55
2022-09-14T07:46:19.118Z,71.64
2022-09-14T07:48:45.742Z,71.22
2022-09-14T07:51:12.408Z,70.85
2022-09-14T07:53:40.820Z,70.76
2022-09-14T07:56:07.532Z,70.71
2022-09-14T07:58:34.132Z,70.71
2022-09-14T08:01:11.973Z,70.30
2022-09-14T08:03:43.434Z,70.35
2022-09-14T08:06:15.806Z,70.67
2022-09-14T08:08:44.405Z,71.31
2022-09-14T08:11:14.176Z,71.18
2022-09-14T08:13:43.728Z,70.95
2022-09-14T08:16:10.871Z,71.76
2022-09-14T08:18:38.199Z,71.12
2022-09-14T08:21:06.631Z,70.70
2022-09-14T08:23:33.584Z,71.11
2022-09-14T08:26:08.154Z,70.60
2022-09-14T08:28:36.296Z,69.86
2022-09-14T08:31:07.817Z,69.75
2022-09-14T08:33:36.244Z,69.63
2022-09-14T08:36:03.132Z,69.67
2022-09-14T08:38:29.708Z,69.49
2022-09-14T08:40:56.760Z,70.23
2022-09-14T08:43:24.590Z,70.38
2022-09-14T08:45:55.153Z,69.54
2022-09-14T08:48:33.045Z,69.22
2022-09-14T08:50:59.508Z,69.84
2022-09-14T08:53:25.972Z,70.06
2022-09-14T08:56:06.425Z,69.53
2022-09-14T08:59:09.611Z,70.01
2022-09-14T09:01:42.052Z,69.95
2022-09-14T09:04:20.915Z,70.12
2022-09-14T09:07:16.992Z,70.74
2022-09-14T09:09:53.379Z,71.25
2022-09-14T09:12:50.941Z,71.59
2022-09-14T09:15:43.803Z,71.56
2022-09-14T09:18:40.999Z,70.97
2022-09-14T09:21:12.419Z,70.92
2022-09-14T09:23:39.354Z,70.59
2022-09-14T09:26:30.985Z,70.04
2022-09-14T09:29:00.260Z,68.93
2022-09-14T09:31:35.741Z,69.17
2022-09-14T09:34:02.561Z,69.52
2022-09-14T09:36:34.242Z,69.09
2022-09-14T09:39:04.990Z,69.54
2022-09-14T09:41:44.456Z,68.25
2022-09-14T09:44:11.023Z,68.45
2022-09-14T09:46:48.340Z,68.38
2022-09-14T09:49:28.097Z,67.16
2022-09-14T09:51:55.050Z,67.05
2022-09-14T09:54:24.660Z,66.30
2022-09-14T09:56:55.643Z,66.88
2022-09-14T09:59:28.388Z,66.29
2022-09-14T10:01:56.754Z,66.62
2022-09-14T10:04:30.022Z,66.75
2022-09-14T10:06:57.752Z,66.76
2022-09-14T10:09:27.434Z,65.86
2022-09-14T10:11:59.542Z,65.75
2022-09-14T10:14:28.079Z,66.26
2022-09-14T10:17:15.716Z,67.18
2022-09-14T10:19:47.321Z,67.26
2022-09-14T10:22:34.398Z,68.26
2022-09-14T10:25:24.755Z,67.45
2022-09-14T10:27:54.453Z,66.94
2022-09-14T10:30:23.565Z,67.63
2022-09-14T10:32:57.064Z,67.65
2022-09-14T10:35:28.969Z,67.39
2022-09-14T10:37:58.865Z,66.57
2022-09-14T10:40:36.135Z,65.27
2022-09-14T10:43:12.690Z,66.26
2022-09-14T10:45:41.777Z,66.88
2022-09-14T10:48:52.644Z,67.06
2022-09-14T10:51:34.906Z,66.12
2022-09-14T10:54:10.886Z,64.54
2022-09-14T10:57:04.095Z,64.11
2022-09-14T10:59:59.348Z,63.66
2022-09-14T11:02:42.894Z,63.04
2022-09-14T11:05:21.228Z,63.69
2022-09-14T11:07:56.623Z,63.40
2022-09-14T11:10:35.153Z,63.89
2022-09-14T11:13:10.696Z,63.73
2022-09-14T11:15:58.312Z,64.99
2022-09-14T11:18:35.746Z,63.78
2022-09-14T11:21:23.898Z,62.51
2022-09-14T11:24:09.060Z,62.28
2022-09-14T11:27:03.122Z,62.68
2022-09-14T11:29:33.285Z,63.05
2022-09-14T11:32:20.522Z,63.39
2022-09-14T11:34:54.775Z,63.94
2022-09-14T11:37:26.316Z,63.47
2022-09-14T11:40:03.893Z,64.08
2022-09-14T11:42:40.578Z,63.94
2022-09-14T11:45:15.028Z,64.48
2022-09-14T11:47:48.608Z,64.29
2022-09-14T11:50:24.079Z,64.07
2022-09-14T11:53:00.560Z,63.33
2022-09-14T11:55:27.072Z,63.23
2022-09-14T11:57:53.816Z,61.96
2022-09-14T12:00:20.730Z,61.91
2022-09-14T12:03:18.174Z,60.83
2022-09-14T12:05:46.245Z,60.91
2022-09-14T12:08:30.831Z,60.40
2022-09-14T12:11:09.286Z,58.98
2022-09-14T12:13:39.271Z,58.16
2022-09-14T12:16:09.598Z,58.70
2022-09-14T12:18:37.578Z,60.52
2022-09-14T12:21:40.455Z,60.34
2022-09-14T12:24:14.650Z,59.79
2022-09-14T12:26:41.020Z,60.06
2022-09-14T12:29:32.697Z,59.27
2022-09-14T12:32:05.079Z,57.73
2022-09-14T12:34:33.248Z,56.60
2022-09-14T12:37:11.945Z,56.17
2022-09-14T12:39:38.675Z,56.60
2022-09-14T12:42:25.753Z,54.10
2022-09-14T12:44:52.624Z,54.76
2022-09-14T12:47:25.075Z,54.39
2022-09-14T12:49:58.526Z,54.54
2022-09-14T12:52:59.361Z,55.33
2022-09-14T12:55:38.404Z,53.73
2022-09-14T12:58:04.638Z,54.80
2022-09-14T13:00:43.941Z,53.34
2022-09-14T13:03:29.616Z,53.54
2022-09-14T13:05:56.294Z,53.65
2022-09-14T13:08:24.081Z,54.13
2022-09-14T13:10:51.628Z,52.70
2022-09-14T13:13:21.910Z,52.90
2022-09-14T13:16:01.117Z,53.27
2022-09-14T13:18:35.480Z,52.31
2022-09-14T13:21:16.415Z,51.08
2022-09-14T13:23:42.783Z,50.66
2022-09-14T13:26:25.245Z,48.77
2022-09-14T13:28:53.518Z,49.70
2022-09-14T13:31:23.043Z,49.02
2022-09-14T13:33:52.156Z,48.73
2022-09-14T13:36:30.288Z,46.99
2022-09-14T13:39:01.517Z,48.89
2022-09-14T13:41:30.658Z,48.14
2022-09-14T13:43:57.536Z,48.10
2022-09-14T13:46:25.511Z,47.07
2022-09-14T13:48:53.454Z,44.98
2022-09-14T13:51:28.031Z,42.47
2022-09-14T13:53:58.943Z,42.66
2022-09-14T13:56:34.508Z,42.95
2022-09-14T13:59:07.096Z,42.09
2022-09-14T14:01:37.428Z,42.87
2022-09-14T14:04:04.213Z,43.13
2022-09-14T14:06:32.600Z,41.74
2022-09-14T14:09:10.473Z,40.83
2022-09-14T14:11:39.073Z,40.78
2022-09-14T14:14:30.228Z,39.20
2022-09-14T14:17:12.815Z,38.51
2022-09-14T14:19:43.599Z,37.85
2022-09-14T14:22:16.154Z,35.62
2022-09-14T14:25:11.904Z,35.11
2022-09-14T14:27:31.868Z,35.54
2022-09-14T14:29:59.503Z,33.98
2022-09-14T14:32:26.088Z,35.31
2022-09-14T14:34:55.396Z,37.06
2022-09-14T14:37:22.052Z,37.20
2022-09-14T14:39:49.744Z,35.96
2022-09-14T14:42:16.811Z,34.41
2022-09-14T14:44:44.070Z,35.05
2022-09-14T14:47:12.699Z,33.99
2022-09-14T14:49:39.047Z,34.55
2022-09-14T14:52:06.693Z,34.28
2022-09-14T14:54:33.056Z,34.13
2022-09-14T14:56:59.415Z,35.06
2022-09-14T14:59:27.631Z,34.17
2022-09-14T15:01:54.325Z,32.89
2022-09-14T15:04:21.040Z,32.23
2022-09-14T15:06:47.949Z,33.58
2022-09-14T15:09:18.144Z,33.62
2022-09-14T15:11:45.436Z,32.35
2022-09-14T15:14:13.882Z,33.21
2022-09-14T15:16:40.418Z,33.85
2022-09-14T15:19:07.229Z,34.78
2022-09-14T15:21:33.645Z,34.25
2022-09-14T15:24:00.128Z,35.56
2022-09-14T15:26:26.534Z,35.56
2022-09-14T15:28:52.960Z,35.88
2022-09-14T15:31:20.074Z,37.07
2022-09-14T15:33:46.543Z,36.37
2022-09-14T15:36:15.591Z,37.06
2022-09-14T15:38:42.155Z,37.97
2022-09-14T15:41:26.414Z,38.13
2022-09-14T15:43:52.785Z,40.13
2022-09-14T15:46:19.133Z,40.86
2022-09-14T15:48:45.489Z,40.71
2022-09-14T15:51:11.941Z,41.56
2022-09-14T15:53:39.714Z,41.04
2022-09-14T15:56:10.546Z,41.60
2022-09-14T15:58:37.333Z,41.91
2022-09-14T16:01:22.152Z,40.50
2022-09-14T16:03:48.573Z,41.45
2022-09-14T16:06:15.008Z,41.39
2022-09-14T16:08:41.865Z,42.32
2022-09-14T16:11:09.706Z,42.54
2022-09-14T16:13:36.352Z,44.16
2022-09-14T16:16:08.113Z,45.65
2022-09-14T16:18:34.773Z,46.38
2022-09-14T16:21:09.228Z,48.55
2022-09-14T16:23:38.936Z,48.62
2022-09-14T16:26:10.344Z,50.41
2022-09-14T16:28:37.706Z,50.75
2022-09-14T16:31:06.047Z,50.92
2022-09-14T16:33:37.285Z,52.27
2022-09-14T16:36:09.642Z,52.43
2022-09-14T16:38:36.631Z,52.46
2022-09-14T16:41:04.039Z,51.99
2022-09-14T16:43:31.398Z,52.24
2022-09-14T16:46:15.157Z,53.88
2022-09-14T16:48:43.650Z,54.02
2022-09-14T16:51:10.886Z,53.79
2022-09-14T16:53:39.836Z,53.96
2022-09-14T16:56:08.950Z,54.27
2022-09-14T16:58:36.100Z,53.92
2022-09-14T17:01:07.248Z,54.90
2022-09-14T17:03:35.397Z,55.92
2022-09-14T17:06:07.745Z,56.23
2022-09-14T17:08:34.940Z,56.26
2022-09-14T17:11:03.766Z,56.24
2022-09-14T17:13:31.040Z,55.84
2022-09-14T17:16:02.367Z,56.70
2022-09-14T17:18:29.076Z,56.67
2022-09-14T17:20:57.048Z,57.39
2022-09-14T17:23:23.461Z,57.27
2022-09-14T17:25:50.003Z,58.47
2022-09-14T17:28:16.402Z,58.27
2022-09-14T17:30:43.213Z,58.63
2022-09-14T17:33:10.147Z,58.32
2022-09-14T17:35:36.538Z,58.43
2022-09-14T17:38:02.980Z,58.55
2022-09-14T17:40:30.477Z,58.39
2022-09-14T17:42:57.391Z,58.53
2022-09-14T17:45:23.745Z,58.92
2022-09-14T17:47:50.108Z,58.68
2022-09-14T17:50:16.711Z,59.15
2022-09-14T17:52:43.047Z,59.05
2022-09-14T17:55:09.540Z,59.33
2022-09-14T17:57:35.964Z,59.42
2022-09-14T18:00:03.349Z,59.46
2022-09-14T18:02:29.812Z,59.72
2022-09-14T18:04:56.186Z,59.06
2022-09-14T18:07:22.580Z,59.57
2022-09-14T18:09:49.102Z,59.90
2022-09-14T18:12:17.685Z,59.76
2022-09-14T18:14:44.027Z,59.98
2022-09-14T18:17:10.464Z,59.61
2022-09-14T18:19:36.817Z,59.77
2022-09-14T18:22:03.222Z,60.44
2022-09-14T18:24:29.658Z,60.35
2022-09-14T18:26:56.089Z,60.11
2022-09-14T18:29:23.454Z,60.66
2022-09-14T18:31:53.536Z,61.48
2022-09-14T18:34:21.272Z,61.41
2022-09-14T18:36:47.639Z,62.09
2022-09-14T18:39:14.183Z,62.13
2022-09-14T18:41:40.670Z,62.03
2022-09-14T18:44:07.261Z,62.51
2022-09-14T18:46:33.717Z,62.54
2022-09-14T18:49:01.165Z,62.96
2022-09-14T18:51:28.839Z,63.36
2022-09-14T18:53:59.890Z,63.60
2022-09-14T18:56:27.856Z,63.70
2022-09-14T18:58:54.227Z,63.79
2022-09-14T19:01:20.745Z,64.00
2022-09-14T19:03:48.087Z,63.84
2022-09-14T19:06:16.701Z,64.57
2022-09-14T19:08:43.616Z,64.26
2022-09-14T19:11:21.346Z,65.18
2022-09-14T19:13:48.530Z,65.02
2022-09-14T19:16:17.117Z,65.17
2022-09-14T19:18:44.564Z,65.65
2022-09-14T19:21:13.950Z,65.81
2022-09-14T19:23:40.787Z,66.03
2022-09-14T19:26:09.671Z,66.60
2022-09-14T19:28:36.441Z,66.69
2022-09-14T19:31:13.906Z,67.50
2022-09-14T19:33:45.115Z,67.70
2022-09-14T19:36:16.868Z,67.84
2022-09-14T19:38:44.426Z,68.16
2022-09-14T19:41:11.195Z,68.18
2022-09-14T19:43:38.081Z,68.20
2022-09-14T19:46:05.699Z,68.33
2022-09-14T19:48:32.897Z,68.37
2022-09-14T19:51:00.531Z,68.79
2022-09-14T19:53:28.483Z,68.79
2022-09-14T19:55:55.180Z,69.05
2022-09-14T19:58:22.016Z,68.91
2022-09-14T20:00:55.172Z,69.42
2022-09-14T20:03:22.004Z,69.49
2022-09-14T20:05:48.866Z,70.26
2022-09-14T20:08:15.213Z,69.69
2022-09-14T20:10:41.556Z,70.33
2022-09-14T20:13:08.361Z,70.34
2022-09-14T20:15:34.869Z,70.81
2022-09-14T20:18:01.273Z,71.41
2022-09-14T20:20:27.636Z,71.18
2022-09-14T20:22:54.014Z,71.10
2022-09-14T20:25:20.388Z,70.97
2022-09-14T20:27:46.944Z,71.08
2022-09-14T20:30:13.348Z,71.10
2022-09-14T20:32:39.713Z,72.05
2022-09-14T20:35:06.161Z,71.93
2022-09-14T20:37:32.623Z,71.81
2022-09-14T20:39:58.993Z,71.36
2022-09-14T20:42:25.357Z,71.33
2022-09-14T20:44:51.713Z,71.49
2022-09-14T20:47:18.070Z,71.17
2022-09-14T20:49:44.815Z,71.37
2022-09-14T20:52:11.167Z,70.88
2022-09-14T20:54:37.520Z,70.61
2022-09-14T20:57:04.713Z,70.49
2022-09-14T20:59:31.253Z,70.84
2022-09-14T21:01:58.854Z,71.11
2022-09-14T21:04:27.678Z,70.91
2022-09-14T21:06:55.356Z,70.84
2022-09-14T21:09:24.409Z,70.74
2022-09-14T21:11:51.503Z,70.95
2022-09-14T21:14:18.996Z,71.24
2022-09-14T21:16:47.917Z,71.40
2022-09-14T21:19:17.224Z,71.20
2022-09-14T21:21:43.868Z,71.05
2022-09-14T21:24:13.254Z,70.96
2022-09-14T21:26:42.877Z,70.82
2022-09-14T21:29:13.052Z,71.00
2022-09-14T21:31:39.648Z,71.37
2022-09-14T21:34:07.362Z,71.88
2022-09-14T21:36:36.544Z,72.22
2022-09-14T21:39:07.144Z,72.56
2022-09-14T21:41:34.003Z,72.73
2022-09-14T21:44:00.484Z,73.04
2022-09-14T21:46:27.253Z,73.74
2022-09-14T21:48:55.009Z,73.39
2022-09-14T21:51:23.804Z,72.07
2022-09-14T21:53:52.525Z,72.52
2022-09-14T21:56:20.659Z,73.00
2022-09-14T21:58:55.212Z,72.34
2022-09-14T22:01:22.122Z,71.69
2022-09-14T22:03:51.285Z,72.43
2022-09-14T22:06:18.959Z,71.77
2022-09-14T22:08:45.368Z,71.39
2022-09-14T22:11:23.156Z,71.11
2022-09-14T22:13:54.282Z,71.51
2022-09-14T22:16:21.184Z,71.17
2022-09-14T22:18:49.962Z,70.94
2022-09-14T22:21:17.345Z,71.15
2022-09-14T22:23:47.911Z,70.95
2022-09-14T22:26:14.262Z,70.96
2022-09-14T22:28:40.706Z,71.00
2022-09-14T22:31:08.182Z,70.62
2022-09-14T22:33:35.151Z,70.60
2022-09-14T22:36:02.781Z,70.83
2022-09-14T22:38:31.036Z,70.80
2022-09-14T22:41:02.248Z,71.01
2022-09-14T22:43:29.164Z,70.82
2022-09-14T22:45:55.718Z,70.78
2022-09-14T22:48:22.450Z,70.92
2022-09-14T22:50:52.212Z,70.79
2022-09-14T22:53:19.917Z,70.71
2022-09-14T22:55:46.289Z,70.61
2022-09-14T22:58:14.417Z,70.72
2022-09-14T23:00:41.440Z,70.65
2022-09-14T23:03:09.061Z,71.07
2022-09-14T23:05:35.945Z,70.64
2022-09-14T23:08:02.713Z,70.65
2022-09-14T23:10:29.073Z,70.70
2022-09-14T23:12:55.434Z,71.74
2022-09-14T23:15:21.805Z,71.40
2022-09-14T23:17:51.998Z,71.15
2022-09-14T23:20:18.623Z,71.13
2022-09-14T23:22:44.967Z,71.49
2022-09-14T23:25:11.389Z,72.22
2022-09-14T23:27:37.741Z,71.87
2022-09-14T23:30:04.959Z,72.23
2022-09-14T23:32:32.029Z,72.50
2022-09-14T23:34:58.396Z,73.06
2022-09-14T23:37:24.792Z,73.24
2022-09-14T23:39:51.183Z,74.11
2022-09-14T23:42:17.593Z,73.42
2022-09-14T23:44:43.943Z,73.83
2022-09-14T23:47:10.325Z,73.21
2022-09-14T23:49:36.787Z,74.69
2022-09-14T23:52:03.440Z,74.24
2022-09-14T23:54:29.833Z,74.31
2022-09-14T23:56:56.176Z,74.75
2022-09-14T23:59:22.570Z,74.78
